Terminal Aerodrome Forecast
Issued by NWS

Home | Current Version | Previous Version | Text Only | Print | Product List | Glossary On
Versions: 1 2 3 4 5 6 7 8 9 10 11 12 13
000
FTUS43 KICT 272320
TAFRSL
TAF
KRSL 272320Z 2800/2824 17018G25KT P6SM VCTS SCT040CB BKN080
      TEMPO 2800/2803 -TSRA BKN040CB
     FM281100 28010KT P6SM SCT030 BKN070
     FM281800 31010KT P6SM SCT050 SCT100=

USA.gov is the U.S. government's official web portal to all federal, state and local government web resources and services.